sensor_id;sensor_type;location;lat;lon;timestamp;temperature;humidity
55771;DHT22;41687;-33.234;-60.334;2023-07-30T00:01:10;12.70;90.60
55771;DHT22;41687;-33.234;-60.334;2023-07-30T00:03:38;12.70;90.80
55771;DHT22;41687;-33.234;-60.334;2023-07-30T00:06:06;12.60;90.70
55771;DHT22;41687;-33.234;-60.334;2023-07-30T00:08:33;12.70;90.80
55771;DHT22;41687;-33.234;-60.334;2023-07-30T00:11:01;12.70;90.80
55771;DHT22;41687;-33.234;-60.334;2023-07-30T00:13:29;12.60;91.10
55771;DHT22;41687;-33.234;-60.334;2023-07-30T00:15:56;12.60;91.50
55771;DHT22;41687;-33.234;-60.334;2023-07-30T00:18:24;12.50;91.70
55771;DHT22;41687;-33.234;-60.334;2023-07-30T00:20:52;12.50;92.10
55771;DHT22;41687;-33.234;-60.334;2023-07-30T00:23:19;12.40;92.40
55771;DHT22;41687;-33.234;-60.334;2023-07-30T00:25:47;12.30;92.90
55771;DHT22;41687;-33.234;-60.334;2023-07-30T00:28:14;12.20;93.30
55771;DHT22;41687;-33.234;-60.334;2023-07-30T00:30:42;12.20;93.50
55771;DHT22;41687;-33.234;-60.334;2023-07-30T00:33:10;12.20;93.70
55771;DHT22;41687;-33.234;-60.334;2023-07-30T00:35:38;12.20;93.50
55771;DHT22;41687;-33.234;-60.334;2023-07-30T00:38:05;12.10;93.50
55771;DHT22;41687;-33.234;-60.334;2023-07-30T00:40:36;12.20;93.40
55771;DHT22;41687;-33.234;-60.334;2023-07-30T00:43:07;12.20;93.20
55771;DHT22;41687;-33.234;-60.334;2023-07-30T00:45:35;12.20;93.00
55771;DHT22;41687;-33.234;-60.334;2023-07-30T00:48:03;12.20;93.40
55771;DHT22;41687;-33.234;-60.334;2023-07-30T00:50:32;12.20;93.30
55771;DHT22;41687;-33.234;-60.334;2023-07-30T00:53:01;12.20;93.00
55771;DHT22;41687;-33.234;-60.334;2023-07-30T00:55:28;12.20;92.90
55771;DHT22;41687;-33.234;-60.334;2023-07-30T00:57:57;12.20;92.90
55771;DHT22;41687;-33.234;-60.334;2023-07-30T01:00:26;12.20;93.10
55771;DHT22;41687;-33.234;-60.334;2023-07-30T01:02:56;12.10;93.10
55771;DHT22;41687;-33.234;-60.334;2023-07-30T01:05:24;12.00;93.20
55771;DHT22;41687;-33.234;-60.334;2023-07-30T01:07:52;12.10;93.20
55771;DHT22;41687;-33.234;-60.334;2023-07-30T01:10:20;11.90;93.20
55771;DHT22;41687;-33.234;-60.334;2023-07-30T01:12:49;12.00;93.30
55771;DHT22;41687;-33.234;-60.334;2023-07-30T01:15:17;12.00;93.20
55771;DHT22;41687;-33.234;-60.334;2023-07-30T01:17:45;12.00;93.10
55771;DHT22;41687;-33.234;-60.334;2023-07-30T01:20:13;12.00;93.00
55771;DHT22;41687;-33.234;-60.334;2023-07-30T01:22:41;12.00;93.20
55771;DHT22;41687;-33.234;-60.334;2023-07-30T01:25:08;12.00;93.20
55771;DHT22;41687;-33.234;-60.334;2023-07-30T01:27:40;11.90;93.40
55771;DHT22;41687;-33.234;-60.334;2023-07-30T01:30:22;11.90;93.40
55771;DHT22;41687;-33.234;-60.334;2023-07-30T01:32:54;11.90;93.60
55771;DHT22;41687;-33.234;-60.334;2023-07-30T01:35:24;12.00;93.90
55771;DHT22;41687;-33.234;-60.334;2023-07-30T01:37:54;11.90;94.00
55771;DHT22;41687;-33.234;-60.334;2023-07-30T01:40:22;11.90;94.40
55771;DHT22;41687;-33.234;-60.334;2023-07-30T01:42:50;11.80;94.50
55771;DHT22;41687;-33.234;-60.334;2023-07-30T01:45:18;11.80;94.90
55771;DHT22;41687;-33.234;-60.334;2023-07-30T01:47:46;11.70;95.20
55771;DHT22;41687;-33.234;-60.334;2023-07-30T01:50:13;11.70;95.30
55771;DHT22;41687;-33.234;-60.334;2023-07-30T01:52:41;11.60;95.80
55771;DHT22;41687;-33.234;-60.334;2023-07-30T01:55:09;11.60;95.90
55771;DHT22;41687;-33.234;-60.334;2023-07-30T01:57:37;11.60;96.00
55771;DHT22;41687;-33.234;-60.334;2023-07-30T02:00:06;11.60;96.40
55771;DHT22;41687;-33.234;-60.334;2023-07-30T02:02:35;11.60;96.90
55771;DHT22;41687;-33.234;-60.334;2023-07-30T02:05:02;11.40;97.00
55771;DHT22;41687;-33.234;-60.334;2023-07-30T02:07:31;11.50;97.20
55771;DHT22;41687;-33.234;-60.334;2023-07-30T02:09:59;11.40;97.50
55771;DHT22;41687;-33.234;-60.334;2023-07-30T02:12:27;11.40;97.70
55771;DHT22;41687;-33.234;-60.334;2023-07-30T02:14:55;11.30;98.30
55771;DHT22;41687;-33.234;-60.334;2023-07-30T02:17:23;11.30;98.50
55771;DHT22;41687;-33.234;-60.334;2023-07-30T02:19:50;11.30;98.60
55771;DHT22;41687;-33.234;-60.334;2023-07-30T02:22:18;11.20;98.90
55771;DHT22;41687;-33.234;-60.334;2023-07-30T02:24:45;11.30;98.80
55771;DHT22;41687;-33.234;-60.334;2023-07-30T02:27:13;11.30;98.90
55771;DHT22;41687;-33.234;-60.334;2023-07-30T02:29:40;11.30;98.90
55771;DHT22;41687;-33.234;-60.334;2023-07-30T02:32:10;11.20;99.40
55771;DHT22;41687;-33.234;-60.334;2023-07-30T02:34:37;11.10;99.60
55771;DHT22;41687;-33.234;-60.334;2023-07-30T02:37:04;11.10;99.80
55771;DHT22;41687;-33.234;-60.334;2023-07-30T02:39:31;11.20;99.80
55771;DHT22;41687;-33.234;-60.334;2023-07-30T02:41:59;11.10;99.90
55771;DHT22;41687;-33.234;-60.334;2023-07-30T02:44:27;11.10;99.90
55771;DHT22;41687;-33.234;-60.334;2023-07-30T02:46:54;11.10;99.90
55771;DHT22;41687;-33.234;-60.334;2023-07-30T02:49:22;11.10;99.90
55771;DHT22;41687;-33.234;-60.334;2023-07-30T02:51:50;11.00;99.90
55771;DHT22;41687;-33.234;-60.334;2023-07-30T02:54:17;11.00;99.90
55771;DHT22;41687;-33.234;-60.334;2023-07-30T02:56:47;11.00;99.90
55771;DHT22;41687;-33.234;-60.334;2023-07-30T02:59:15;10.90;99.90
55771;DHT22;41687;-33.234;-60.334;2023-07-30T03:01:43;10.90;99.90
55771;DHT22;41687;-33.234;-60.334;2023-07-30T03:04:11;10.80;99.90
55771;DHT22;41687;-33.234;-60.334;2023-07-30T03:06:39;10.90;99.90
55771;DHT22;41687;-33.234;-60.334;2023-07-30T03:09:09;10.80;99.90
55771;DHT22;41687;-33.234;-60.334;2023-07-30T03:11:38;10.70;99.90
55771;DHT22;41687;-33.234;-60.334;2023-07-30T03:14:06;10.70;99.90
55771;DHT22;41687;-33.234;-60.334;2023-07-30T03:16:33;10.70;99.90
55771;DHT22;41687;-33.234;-60.334;2023-07-30T03:19:01;10.70;99.90
55771;DHT22;41687;-33.234;-60.334;2023-07-30T03:21:29;10.70;99.90
55771;DHT22;41687;-33.234;-60.334;2023-07-30T03:23:57;10.70;99.90
55771;DHT22;41687;-33.234;-60.334;2023-07-30T03:26:25;10.60;99.90
55771;DHT22;41687;-33.234;-60.334;2023-07-30T03:28:52;10.50;99.90
55771;DHT22;41687;-33.234;-60.334;2023-07-30T03:31:20;10.60;99.90
55771;DHT22;41687;-33.234;-60.334;2023-07-30T03:33:48;10.60;99.90
55771;DHT22;41687;-33.234;-60.334;2023-07-30T03:36:15;10.70;99.90
55771;DHT22;41687;-33.234;-60.334;2023-07-30T03:38:43;10.70;99.90
55771;DHT22;41687;-33.234;-60.334;2023-07-30T03:41:11;10.70;99.90
55771;DHT22;41687;-33.234;-60.334;2023-07-30T03:43:39;10.70;99.90
55771;DHT22;41687;-33.234;-60.334;2023-07-30T03:46:06;10.70;99.90
55771;DHT22;41687;-33.234;-60.334;2023-07-30T03:48:34;10.80;99.90
55771;DHT22;41687;-33.234;-60.334;2023-07-30T03:51:02;10.80;99.90
55771;DHT22;41687;-33.234;-60.334;2023-07-30T03:53:29;10.70;99.90
55771;DHT22;41687;-33.234;-60.334;2023-07-30T03:55:57;10.80;99.90
55771;DHT22;41687;-33.234;-60.334;2023-07-30T03:58:26;10.80;99.90
55771;DHT22;41687;-33.234;-60.334;2023-07-30T04:00:54;10.80;99.90
55771;DHT22;41687;-33.234;-60.334;2023-07-30T04:03:22;10.80;99.90
55771;DHT22;41687;-33.234;-60.334;2023-07-30T04:05:50;10.90;99.90
55771;DHT22;41687;-33.234;-60.334;2023-07-30T04:08:17;10.80;99.90
55771;DHT22;41687;-33.234;-60.334;2023-07-30T04:10:45;10.90;99.90
55771;DHT22;41687;-33.234;-60.334;2023-07-30T04:13:13;10.80;99.90
55771;DHT22;41687;-33.234;-60.334;2023-07-30T04:15:42;10.70;99.90
55771;DHT22;41687;-33.234;-60.334;2023-07-30T04:18:10;10.70;99.90
55771;DHT22;41687;-33.234;-60.334;2023-07-30T04:20:38;10.70;99.90
55771;DHT22;41687;-33.234;-60.334;2023-07-30T04:23:05;10.70;99.90
55771;DHT22;41687;-33.234;-60.334;2023-07-30T04:25:33;10.70;99.90
55771;DHT22;41687;-33.234;-60.334;2023-07-30T04:28:01;10.80;99.90
55771;DHT22;41687;-33.234;-60.334;2023-07-30T04:30:29;10.80;99.90
55771;DHT22;41687;-33.234;-60.334;2023-07-30T04:32:57;10.80;99.90
55771;DHT22;41687;-33.234;-60.334;2023-07-30T04:35:26;10.70;99.90
55771;DHT22;41687;-33.234;-60.334;2023-07-30T04:37:53;10.60;99.90
55771;DHT22;41687;-33.234;-60.334;2023-07-30T04:40:22;10.70;99.90
55771;DHT22;41687;-33.234;-60.334;2023-07-30T04:42:50;10.70;99.90
55771;DHT22;41687;-33.234;-60.334;2023-07-30T04:45:18;10.70;99.90
55771;DHT22;41687;-33.234;-60.334;2023-07-30T04:47:48;10.70;99.90
55771;DHT22;41687;-33.234;-60.334;2023-07-30T04:50:16;10.70;99.90
55771;DHT22;41687;-33.234;-60.334;2023-07-30T04:52:43;10.70;99.90
55771;DHT22;41687;-33.234;-60.334;2023-07-30T04:55:11;10.80;99.90
55771;DHT22;41687;-33.234;-60.334;2023-07-30T04:57:40;10.80;99.90
55771;DHT22;41687;-33.234;-60.334;2023-07-30T05:00:09;10.70;99.90
55771;DHT22;41687;-33.234;-60.334;2023-07-30T05:02:37;10.80;99.90
55771;DHT22;41687;-33.234;-60.334;2023-07-30T05:05:05;10.70;99.90
55771;DHT22;41687;-33.234;-60.334;2023-07-30T05:07:33;10.70;99.90
55771;DHT22;41687;-33.234;-60.334;2023-07-30T05:10:00;10.60;99.90
55771;DHT22;41687;-33.234;-60.334;2023-07-30T05:12:28;10.70;99.90
55771;DHT22;41687;-33.234;-60.334;2023-07-30T05:14:56;10.80;99.90
55771;DHT22;41687;-33.234;-60.334;2023-07-30T05:17:23;10.70;99.90
55771;DHT22;41687;-33.234;-60.334;2023-07-30T05:19:51;10.70;99.90
55771;DHT22;41687;-33.234;-60.334;2023-07-30T05:22:18;10.80;99.90
55771;DHT22;41687;-33.234;-60.334;2023-07-30T05:24:46;10.80;99.90
55771;DHT22;41687;-33.234;-60.334;2023-07-30T05:27:14;10.70;99.90
55771;DHT22;41687;-33.234;-60.334;2023-07-30T05:29:41;10.80;99.90
55771;DHT22;41687;-33.234;-60.334;2023-07-30T05:32:09;10.70;99.90
55771;DHT22;41687;-33.234;-60.334;2023-07-30T05:34:37;10.80;99.90
55771;DHT22;41687;-33.234;-60.334;2023-07-30T05:37:05;10.70;99.90
55771;DHT22;41687;-33.234;-60.334;2023-07-30T05:39:32;10.70;99.90
55771;DHT22;41687;-33.234;-60.334;2023-07-30T05:42:00;10.80;99.90
55771;DHT22;41687;-33.234;-60.334;2023-07-30T05:44:28;10.70;99.90
55771;DHT22;41687;-33.234;-60.334;2023-07-30T05:46:55;10.70;99.90
55771;DHT22;41687;-33.234;-60.334;2023-07-30T05:49:23;10.80;99.90
55771;DHT22;41687;-33.234;-60.334;2023-07-30T05:51:50;10.70;99.90
55771;DHT22;41687;-33.234;-60.334;2023-07-30T05:54:18;10.70;99.90
55771;DHT22;41687;-33.234;-60.334;2023-07-30T05:56:46;10.70;99.90
55771;DHT22;41687;-33.234;-60.334;2023-07-30T05:59:13;10.60;99.90
55771;DHT22;41687;-33.234;-60.334;2023-07-30T06:01:41;10.60;99.90
55771;DHT22;41687;-33.234;-60.334;2023-07-30T06:04:09;10.60;99.90
55771;DHT22;41687;-33.234;-60.334;2023-07-30T06:06:37;10.50;99.90
55771;DHT22;41687;-33.234;-60.334;2023-07-30T06:09:04;10.60;99.90
55771;DHT22;41687;-33.234;-60.334;2023-07-30T06:11:32;10.50;99.90
55771;DHT22;41687;-33.234;-60.334;2023-07-30T06:14:00;10.50;99.90
55771;DHT22;41687;-33.234;-60.334;2023-07-30T06:16:28;10.40;99.90
55771;DHT22;41687;-33.234;-60.334;2023-07-30T06:18:55;10.40;99.90
55771;DHT22;41687;-33.234;-60.334;2023-07-30T06:21:23;10.40;99.90
55771;DHT22;41687;-33.234;-60.334;2023-07-30T06:23:51;10.50;99.90
55771;DHT22;41687;-33.234;-60.334;2023-07-30T06:26:18;10.40;99.90
55771;DHT22;41687;-33.234;-60.334;2023-07-30T06:28:46;10.40;99.90
55771;DHT22;41687;-33.234;-60.334;2023-07-30T06:31:13;10.40;99.90
55771;DHT22;41687;-33.234;-60.334;2023-07-30T06:33:41;10.50;99.90
55771;DHT22;41687;-33.234;-60.334;2023-07-30T06:36:09;10.40;99.90
55771;DHT22;41687;-33.234;-60.334;2023-07-30T06:38:36;10.50;99.90
55771;DHT22;41687;-33.234;-60.334;2023-07-30T06:41:04;10.40;99.90
55771;DHT22;41687;-33.234;-60.334;2023-07-30T06:43:32;10.50;99.90
55771;DHT22;41687;-33.234;-60.334;2023-07-30T06:46:00;10.40;99.90
55771;DHT22;41687;-33.234;-60.334;2023-07-30T06:48:28;10.40;99.90
55771;DHT22;41687;-33.234;-60.334;2023-07-30T06:50:55;10.40;99.90
55771;DHT22;41687;-33.234;-60.334;2023-07-30T06:53:23;10.40;99.90
55771;DHT22;41687;-33.234;-60.334;2023-07-30T06:55:50;10.40;99.90
55771;DHT22;41687;-33.234;-60.334;2023-07-30T06:58:19;10.40;99.90
55771;DHT22;41687;-33.234;-60.334;2023-07-30T07:00:47;10.30;99.90
55771;DHT22;41687;-33.234;-60.334;2023-07-30T07:03:15;10.40;99.90
55771;DHT22;41687;-33.234;-60.334;2023-07-30T07:05:42;10.30;99.90
55771;DHT22;41687;-33.234;-60.334;2023-07-30T07:08:10;10.30;99.90
55771;DHT22;41687;-33.234;-60.334;2023-07-30T07:10:37;10.40;99.90
55771;DHT22;41687;-33.234;-60.334;2023-07-30T07:13:05;10.20;99.90
55771;DHT22;41687;-33.234;-60.334;2023-07-30T07:15:33;10.20;99.90
55771;DHT22;41687;-33.234;-60.334;2023-07-30T07:18:00;10.30;99.90
55771;DHT22;41687;-33.234;-60.334;2023-07-30T07:20:28;10.30;99.90
55771;DHT22;41687;-33.234;-60.334;2023-07-30T07:22:56;10.30;99.90
55771;DHT22;41687;-33.234;-60.334;2023-07-30T07:25:23;10.30;99.90
55771;DHT22;41687;-33.234;-60.334;2023-07-30T07:27:51;10.20;99.90
55771;DHT22;41687;-33.234;-60.334;2023-07-30T07:30:19;10.20;99.90
55771;DHT22;41687;-33.234;-60.334;2023-07-30T07:32:47;10.20;99.90
55771;DHT22;41687;-33.234;-60.334;2023-07-30T07:35:19;10.20;99.90
55771;DHT22;41687;-33.234;-60.334;2023-07-30T07:37:50;10.30;99.90
55771;DHT22;41687;-33.234;-60.334;2023-07-30T07:40:18;10.30;99.90
55771;DHT22;41687;-33.234;-60.334;2023-07-30T07:42:45;10.40;99.90
55771;DHT22;41687;-33.234;-60.334;2023-07-30T07:45:13;10.40;99.90
55771;DHT22;41687;-33.234;-60.334;2023-07-30T07:47:41;10.30;99.90
55771;DHT22;41687;-33.234;-60.334;2023-07-30T07:50:08;10.40;99.90
55771;DHT22;41687;-33.234;-60.334;2023-07-30T07:52:36;10.30;99.90
55771;DHT22;41687;-33.234;-60.334;2023-07-30T07:55:04;10.40;99.90
55771;DHT22;41687;-33.234;-60.334;2023-07-30T07:57:33;10.30;99.90
55771;DHT22;41687;-33.234;-60.334;2023-07-30T08:00:02;10.30;99.90
55771;DHT22;41687;-33.234;-60.334;2023-07-30T08:02:38;10.30;99.90
55771;DHT22;41687;-33.234;-60.334;2023-07-30T08:05:06;10.20;99.90
55771;DHT22;41687;-33.234;-60.334;2023-07-30T08:07:34;10.10;99.90
55771;DHT22;41687;-33.234;-60.334;2023-07-30T08:10:02;10.20;99.90
55771;DHT22;41687;-33.234;-60.334;2023-07-30T08:12:32;10.10;99.90
55771;DHT22;41687;-33.234;-60.334;2023-07-30T08:15:00;10.00;99.90
55771;DHT22;41687;-33.234;-60.334;2023-07-30T08:17:27;10.00;99.90
55771;DHT22;41687;-33.234;-60.334;2023-07-30T08:19:56;9.90;99.90
55771;DHT22;41687;-33.234;-60.334;2023-07-30T08:22:23;9.90;99.90
55771;DHT22;41687;-33.234;-60.334;2023-07-30T08:24:51;9.90;99.90
55771;DHT22;41687;-33.234;-60.334;2023-07-30T08:27:18;9.90;99.90
55771;DHT22;41687;-33.234;-60.334;2023-07-30T08:29:46;9.90;99.90
55771;DHT22;41687;-33.234;-60.334;2023-07-30T08:32:14;9.90;99.90
55771;DHT22;41687;-33.234;-60.334;2023-07-30T08:34:42;9.80;99.90
55771;DHT22;41687;-33.234;-60.334;2023-07-30T08:37:09;9.80;99.90
55771;DHT22;41687;-33.234;-60.334;2023-07-30T08:39:37;9.80;99.90
55771;DHT22;41687;-33.234;-60.334;2023-07-30T08:42:04;9.70;99.90
55771;DHT22;41687;-33.234;-60.334;2023-07-30T08:44:32;9.80;99.90
55771;DHT22;41687;-33.234;-60.334;2023-07-30T08:47:00;9.80;99.90
55771;DHT22;41687;-33.234;-60.334;2023-07-30T08:49:27;9.80;99.90
55771;DHT22;41687;-33.234;-60.334;2023-07-30T08:52:02;9.80;99.90
55771;DHT22;41687;-33.234;-60.334;2023-07-30T08:54:31;9.80;99.90
55771;DHT22;41687;-33.234;-60.334;2023-07-30T08:56:59;9.80;99.90
55771;DHT22;41687;-33.234;-60.334;2023-07-30T08:59:33;9.80;99.90
55771;DHT22;41687;-33.234;-60.334;2023-07-30T09:02:05;9.80;99.90
55771;DHT22;41687;-33.234;-60.334;2023-07-30T09:04:38;9.90;99.90
55771;DHT22;41687;-33.234;-60.334;2023-07-30T09:07:09;9.90;99.90
55771;DHT22;41687;-33.234;-60.334;2023-07-30T09:09:37;9.90;99.90
55771;DHT22;41687;-33.234;-60.334;2023-07-30T09:12:13;9.90;99.90
55771;DHT22;41687;-33.234;-60.334;2023-07-30T09:14:42;9.90;99.90
55771;DHT22;41687;-33.234;-60.334;2023-07-30T09:17:19;9.90;99.90
55771;DHT22;41687;-33.234;-60.334;2023-07-30T09:19:47;9.90;99.90
55771;DHT22;41687;-33.234;-60.334;2023-07-30T09:22:27;9.90;99.90
55771;DHT22;41687;-33.234;-60.334;2023-07-30T09:24:56;9.80;99.90
55771;DHT22;41687;-33.234;-60.334;2023-07-30T09:27:26;9.80;99.90
55771;DHT22;41687;-33.234;-60.334;2023-07-30T09:29:57;9.90;99.90
55771;DHT22;41687;-33.234;-60.334;2023-07-30T09:32:28;9.80;99.90
55771;DHT22;41687;-33.234;-60.334;2023-07-30T09:35:04;9.80;99.90
55771;DHT22;41687;-33.234;-60.334;2023-07-30T09:37:38;9.80;99.90
55771;DHT22;41687;-33.234;-60.334;2023-07-30T09:40:07;9.70;99.90
55771;DHT22;41687;-33.234;-60.334;2023-07-30T09:42:35;9.70;99.90
55771;DHT22;41687;-33.234;-60.334;2023-07-30T09:45:08;9.60;99.90
55771;DHT22;41687;-33.234;-60.334;2023-07-30T09:47:38;9.60;99.90
55771;DHT22;41687;-33.234;-60.334;2023-07-30T09:50:07;9.60;99.90
55771;DHT22;41687;-33.234;-60.334;2023-07-30T09:52:35;9.60;99.90
55771;DHT22;41687;-33.234;-60.334;2023-07-30T09:55:06;9.50;99.90
55771;DHT22;41687;-33.234;-60.334;2023-07-30T09:57:35;9.50;99.90
55771;DHT22;41687;-33.234;-60.334;2023-07-30T10:00:04;9.50;99.90
55771;DHT22;41687;-33.234;-60.334;2023-07-30T10:02:38;9.50;99.90
55771;DHT22;41687;-33.234;-60.334;2023-07-30T10:05:11;9.60;99.90
55771;DHT22;41687;-33.234;-60.334;2023-07-30T10:10:20;9.50;99.90
55771;DHT22;41687;-33.234;-60.334;2023-07-30T10:12:50;9.60;99.90
55771;DHT22;41687;-33.234;-60.334;2023-07-30T10:15:21;9.60;99.90
55771;DHT22;41687;-33.234;-60.334;2023-07-30T10:17:53;9.50;99.90
55771;DHT22;41687;-33.234;-60.334;2023-07-30T10:20:27;9.50;99.90
55771;DHT22;41687;-33.234;-60.334;2023-07-30T10:22:58;9.50;99.90
55771;DHT22;41687;-33.234;-60.334;2023-07-30T10:25:52;9.50;99.90
55771;DHT22;41687;-33.234;-60.334;2023-07-30T10:28:32;9.40;99.90
55771;DHT22;41687;-33.234;-60.334;2023-07-30T10:31:05;9.30;99.90
55771;DHT22;41687;-33.234;-60.334;2023-07-30T10:33:52;9.30;99.90
55771;DHT22;41687;-33.234;-60.334;2023-07-30T10:36:33;9.30;99.90
55771;DHT22;41687;-33.234;-60.334;2023-07-30T10:39:19;9.20;99.90
55771;DHT22;41687;-33.234;-60.334;2023-07-30T10:41:50;9.20;99.90
55771;DHT22;41687;-33.234;-60.334;2023-07-30T10:44:27;9.20;99.90
55771;DHT22;41687;-33.234;-60.334;2023-07-30T10:46:58;9.20;99.90
55771;DHT22;41687;-33.234;-60.334;2023-07-30T10:49:26;9.10;99.90
55771;DHT22;41687;-33.234;-60.334;2023-07-30T10:51:55;9.20;99.90
55771;DHT22;41687;-33.234;-60.334;2023-07-30T10:54:33;9.20;99.90
55771;DHT22;41687;-33.234;-60.334;2023-07-30T10:57:04;9.20;99.90
55771;DHT22;41687;-33.234;-60.334;2023-07-30T10:59:37;9.10;99.90
55771;DHT22;41687;-33.234;-60.334;2023-07-30T11:02:05;9.00;99.90
55771;DHT22;41687;-33.234;-60.334;2023-07-30T11:04:36;9.10;99.90
55771;DHT22;41687;-33.234;-60.334;2023-07-30T11:07:03;9.10;99.90
55771;DHT22;41687;-33.234;-60.334;2023-07-30T11:29:56;9.10;99.90
55771;DHT22;41687;-33.234;-60.334;2023-07-30T11:32:27;9.30;99.90
55771;DHT22;41687;-33.234;-60.334;2023-07-30T11:34:56;9.30;99.90
55771;DHT22;41687;-33.234;-60.334;2023-07-30T11:37:24;9.40;99.90
55771;DHT22;41687;-33.234;-60.334;2023-07-30T11:39:52;9.50;99.90
55771;DHT22;41687;-33.234;-60.334;2023-07-30T11:42:20;9.60;99.90
55771;DHT22;41687;-33.234;-60.334;2023-07-30T11:44:48;9.70;99.90
55771;DHT22;41687;-33.234;-60.334;2023-07-30T11:47:21;9.90;99.90
55771;DHT22;41687;-33.234;-60.334;2023-07-30T11:49:59;10.10;99.90
55771;DHT22;41687;-33.234;-60.334;2023-07-30T11:52:27;10.40;99.90
55771;DHT22;41687;-33.234;-60.334;2023-07-30T11:55:02;10.70;99.90
55771;DHT22;41687;-33.234;-60.334;2023-07-30T11:57:36;12.00;99.90
55771;DHT22;41687;-33.234;-60.334;2023-07-30T12:00:06;12.40;99.70
55771;DHT22;41687;-33.234;-60.334;2023-07-30T12:02:38;12.20;98.90
55771;DHT22;41687;-33.234;-60.334;2023-07-30T12:05:09;11.90;99.60
55771;DHT22;41687;-33.234;-60.334;2023-07-30T12:07:40;12.40;99.20
55771;DHT22;41687;-33.234;-60.334;2023-07-30T12:10:12;12.70;98.20
55771;DHT22;41687;-33.234;-60.334;2023-07-30T12:12:46;13.30;97.10
55771;DHT22;41687;-33.234;-60.334;2023-07-30T12:15:19;13.60;96.20
55771;DHT22;41687;-33.234;-60.334;2023-07-30T12:17:49;14.00;94.10
55771;DHT22;41687;-33.234;-60.334;2023-07-30T12:20:17;13.70;94.70
55771;DHT22;41687;-33.234;-60.334;2023-07-30T12:22:44;14.10;93.80
55771;DHT22;41687;-33.234;-60.334;2023-07-30T12:25:12;14.20;93.50
55771;DHT22;41687;-33.234;-60.334;2023-07-30T12:27:40;14.90;92.90
55771;DHT22;41687;-33.234;-60.334;2023-07-30T12:30:08;14.60;91.70
55771;DHT22;41687;-33.234;-60.334;2023-07-30T12:32:36;14.50;92.60
55771;DHT22;41687;-33.234;-60.334;2023-07-30T12:35:04;14.20;93.20
55771;DHT22;41687;-33.234;-60.334;2023-07-30T12:37:31;14.10;93.60
55771;DHT22;41687;-33.234;-60.334;2023-07-30T12:40:02;13.90;93.20
55771;DHT22;41687;-33.234;-60.334;2023-07-30T12:42:30;14.10;93.90
55771;DHT22;41687;-33.234;-60.334;2023-07-30T12:44:59;14.30;93.60
55771;DHT22;41687;-33.234;-60.334;2023-07-30T12:47:26;14.50;93.30
55771;DHT22;41687;-33.234;-60.334;2023-07-30T12:49:54;14.50;93.10
55771;DHT22;41687;-33.234;-60.334;2023-07-30T12:52:21;14.80;92.70
55771;DHT22;41687;-33.234;-60.334;2023-07-30T12:54:49;15.00;92.50
55771;DHT22;41687;-33.234;-60.334;2023-07-30T12:57:16;15.20;92.00
55771;DHT22;41687;-33.234;-60.334;2023-07-30T12:59:44;15.50;91.60
55771;DHT22;41687;-33.234;-60.334;2023-07-30T13:02:12;15.70;90.80
55771;DHT22;41687;-33.234;-60.334;2023-07-30T13:04:40;15.60;90.50
55771;DHT22;41687;-33.234;-60.334;2023-07-30T13:07:07;15.60;90.50
55771;DHT22;41687;-33.234;-60.334;2023-07-30T13:09:35;15.50;89.70
55771;DHT22;41687;-33.234;-60.334;2023-07-30T13:12:02;15.10;90.80
55771;DHT22;41687;-33.234;-60.334;2023-07-30T13:14:30;15.00;91.20
55771;DHT22;41687;-33.234;-60.334;2023-07-30T13:16:58;14.70;90.40
55771;DHT22;41687;-33.234;-60.334;2023-07-30T13:19:25;14.90;91.20
55771;DHT22;41687;-33.234;-60.334;2023-07-30T13:21:54;14.80;91.00
55771;DHT22;41687;-33.234;-60.334;2023-07-30T13:24:23;14.70;91.60
55771;DHT22;41687;-33.234;-60.334;2023-07-30T13:26:50;14.80;90.30
55771;DHT22;41687;-33.234;-60.334;2023-07-30T13:29:18;14.70;90.60
55771;DHT22;41687;-33.234;-60.334;2023-07-30T13:31:46;14.80;91.40
55771;DHT22;41687;-33.234;-60.334;2023-07-30T13:34:14;14.70;90.80
55771;DHT22;41687;-33.234;-60.334;2023-07-30T13:36:41;14.80;91.30
55771;DHT22;41687;-33.234;-60.334;2023-07-30T13:39:09;14.90;90.80
55771;DHT22;41687;-33.234;-60.334;2023-07-30T13:41:37;14.90;91.40
55771;DHT22;41687;-33.234;-60.334;2023-07-30T13:44:04;15.00;91.10
55771;DHT22;41687;-33.234;-60.334;2023-07-30T13:46:32;15.00;91.60
55771;DHT22;41687;-33.234;-60.334;2023-07-30T13:49:00;14.80;91.20
55771;DHT22;41687;-33.234;-60.334;2023-07-30T13:51:27;14.90;91.50
55771;DHT22;41687;-33.234;-60.334;2023-07-30T13:54:00;15.00;91.30
55771;DHT22;41687;-33.234;-60.334;2023-07-30T13:56:27;15.10;91.70
55771;DHT22;41687;-33.234;-60.334;2023-07-30T13:58:56;15.10;91.40
55771;DHT22;41687;-33.234;-60.334;2023-07-30T14:01:23;15.00;91.30
55771;DHT22;41687;-33.234;-60.334;2023-07-30T14:03:51;15.00;91.80
55771;DHT22;41687;-33.234;-60.334;2023-07-30T14:06:18;14.70;91.30
55771;DHT22;41687;-33.234;-60.334;2023-07-30T14:08:46;14.90;92.30
55771;DHT22;41687;-33.234;-60.334;2023-07-30T14:11:14;14.90;92.50
55771;DHT22;41687;-33.234;-60.334;2023-07-30T14:13:41;15.00;92.60
55771;DHT22;41687;-33.234;-60.334;2023-07-30T14:16:09;15.00;92.30
55771;DHT22;41687;-33.234;-60.334;2023-07-30T14:18:37;15.00;92.40
55771;DHT22;41687;-33.234;-60.334;2023-07-30T14:21:06;15.00;92.50
55771;DHT22;41687;-33.234;-60.334;2023-07-30T14:23:33;15.20;92.70
55771;DHT22;41687;-33.234;-60.334;2023-07-30T14:26:01;15.30;92.50
55771;DHT22;41687;-33.234;-60.334;2023-07-30T14:28:29;15.30;92.50
55771;DHT22;41687;-33.234;-60.334;2023-07-30T14:30:58;15.40;91.90
55771;DHT22;41687;-33.234;-60.334;2023-07-30T14:33:25;15.30;91.40
55771;DHT22;41687;-33.234;-60.334;2023-07-30T14:35:53;15.10;91.90
55771;DHT22;41687;-33.234;-60.334;2023-07-30T14:38:21;15.20;91.70
55771;DHT22;41687;-33.234;-60.334;2023-07-30T14:40:48;15.20;91.70
55771;DHT22;41687;-33.234;-60.334;2023-07-30T14:43:16;15.20;90.80
55771;DHT22;41687;-33.234;-60.334;2023-07-30T14:45:43;15.00;91.00
55771;DHT22;41687;-33.234;-60.334;2023-07-30T14:48:12;15.20;91.80
55771;DHT22;41687;-33.234;-60.334;2023-07-30T14:50:40;15.30;91.40
55771;DHT22;41687;-33.234;-60.334;2023-07-30T14:53:08;15.50;91.80
55771;DHT22;41687;-33.234;-60.334;2023-07-30T14:55:35;15.70;91.60
55771;DHT22;41687;-33.234;-60.334;2023-07-30T14:58:03;15.90;91.40
55771;DHT22;41687;-33.234;-60.334;2023-07-30T15:00:31;16.10;91.00
55771;DHT22;41687;-33.234;-60.334;2023-07-30T15:02:58;16.10;90.30
55771;DHT22;41687;-33.234;-60.334;2023-07-30T15:05:26;16.20;90.00
55771;DHT22;41687;-33.234;-60.334;2023-07-30T15:07:54;16.30;90.30
55771;DHT22;41687;-33.234;-60.334;2023-07-30T15:10:21;16.30;90.00
55771;DHT22;41687;-33.234;-60.334;2023-07-30T15:12:49;16.40;90.10
55771;DHT22;41687;-33.234;-60.334;2023-07-30T15:15:17;16.40;89.70
55771;DHT22;41687;-33.234;-60.334;2023-07-30T15:17:45;16.40;90.10
55771;DHT22;41687;-33.234;-60.334;2023-07-30T15:20:12;16.40;88.50
55771;DHT22;41687;-33.234;-60.334;2023-07-30T15:22:40;16.40;89.10